createdAt,value
2018-10-12T00:00:40.314Z,18.40
2018-10-12T00:03:08.033Z,18.30
2018-10-12T00:05:35.789Z,18.30
2018-10-12T00:08:03.513Z,18.10
2018-10-12T00:10:31.215Z,18.00
2018-10-12T00:13:05.773Z,18.00
2018-10-12T00:15:33.485Z,17.90
2018-10-12T00:18:01.169Z,17.90
2018-10-12T00:20:29.277Z,17.90
2018-10-12T00:22:56.958Z,17.90
2018-10-12T00:25:24.682Z,17.70
2018-10-12T00:27:52.362Z,17.80
2018-10-12T00:30:20.090Z,17.90
2018-10-12T00:32:47.859Z,18.00
2018-10-12T00:35:15.625Z,18.00
2018-10-12T00:37:43.407Z,18.00
2018-10-12T00:40:11.125Z,17.90
2018-10-12T00:42:38.825Z,18.00
2018-10-12T00:45:06.569Z,17.70
2018-10-12T00:47:35.079Z,17.80
2018-10-12T00:50:02.812Z,17.80
2018-10-12T00:52:30.498Z,17.80
2018-10-12T00:54:58.354Z,17.80
2018-10-12T00:57:26.644Z,17.80
2018-10-12T00:59:54.370Z,17.60
2018-10-12T01:02:22.069Z,17.50
2018-10-12T01:04:49.758Z,17.40
2018-10-12T01:07:17.476Z,17.50
2018-10-12T01:09:45.213Z,17.50
2018-10-12T01:12:18.421Z,17.50
2018-10-12T01:14:46.093Z,17.50
2018-10-12T01:17:13.824Z,17.50
2018-10-12T01:19:41.551Z,17.50
2018-10-12T01:22:09.305Z,17.50
2018-10-12T01:24:37.047Z,17.60
2018-10-12T01:27:04.772Z,17.50
2018-10-12T01:29:32.483Z,17.50
2018-10-12T01:32:00.214Z,17.40
2018-10-12T01:34:27.911Z,17.60
2018-10-12T01:36:55.662Z,17.70
2018-10-12T01:39:23.498Z,17.60
2018-10-12T01:41:51.233Z,17.60
2018-10-12T01:44:18.981Z,17.50
2018-10-12T01:46:46.710Z,17.50
2018-10-12T01:49:14.420Z,17.50
2018-10-12T01:51:42.505Z,17.40
2018-10-12T01:54:10.208Z,17.30
2018-10-12T01:56:37.930Z,17.30
2018-10-12T01:59:05.718Z,17.20
2018-10-12T02:01:33.408Z,17.10
2018-10-12T02:04:01.130Z,17.00
2018-10-12T02:06:28.921Z,17.00
2018-10-12T02:08:56.630Z,16.90
2018-10-12T02:11:24.471Z,16.90
2018-10-12T02:13:52.169Z,16.80
2018-10-12T02:16:19.872Z,16.70
2018-10-12T02:18:47.549Z,16.70
2018-10-12T02:21:15.289Z,16.60
2018-10-12T02:23:43.004Z,16.70
2018-10-12T02:26:10.700Z,16.70
2018-10-12T02:28:38.405Z,16.70
2018-10-12T02:31:06.221Z,16.80
2018-10-12T02:33:33.956Z,16.90
2018-10-12T02:36:01.691Z,16.90
2018-10-12T02:38:29.436Z,16.90
2018-10-12T02:40:57.181Z,16.90
2018-10-12T02:43:24.885Z,17.00
2018-10-12T02:45:52.593Z,17.00
2018-10-12T02:48:20.261Z,16.90
2018-10-12T02:50:47.998Z,16.90
2018-10-12T02:53:15.690Z,16.90
2018-10-12T02:55:43.817Z,16.90
2018-10-12T02:58:11.493Z,16.80
2018-10-12T03:00:39.197Z,16.70
2018-10-12T03:03:06.883Z,16.70
2018-10-12T03:05:34.554Z,16.50
2018-10-12T03:08:02.289Z,16.50
2018-10-12T03:10:30.073Z,16.50
2018-10-12T03:12:59.098Z,16.60
2018-10-12T03:15:26.814Z,16.50
2018-10-12T03:17:54.637Z,16.40
2018-10-12T03:20:22.333Z,16.40
2018-10-12T03:22:49.997Z,16.40
2018-10-12T03:25:17.694Z,16.40
2018-10-12T03:27:51.031Z,16.30
2018-10-12T03:30:18.788Z,16.40
2018-10-12T03:32:46.585Z,16.40
2018-10-12T03:35:14.510Z,16.40
2018-10-12T03:37:42.533Z,16.40
2018-10-12T03:40:10.367Z,16.40
2018-10-12T03:42:38.134Z,16.30
2018-10-12T03:45:05.849Z,16.30
2018-10-12T03:47:34.164Z,16.20
2018-10-12T03:50:02.255Z,16.10
2018-10-12T03:52:29.982Z,16.00
2018-10-12T03:54:57.744Z,15.80
2018-10-12T03:57:25.570Z,15.60
2018-10-12T03:59:53.299Z,15.50
2018-10-12T04:02:21.027Z,15.60
2018-10-12T04:04:48.802Z,15.60
2018-10-12T04:07:16.600Z,15.50
2018-10-12T04:09:44.316Z,15.60
2018-10-12T04:12:12.044Z,15.60
2018-10-12T04:14:39.866Z,15.60
2018-10-12T04:17:07.680Z,15.60
2018-10-12T04:19:36.294Z,15.60
2018-10-12T04:22:03.973Z,15.50
2018-10-12T04:24:32.141Z,15.60
2018-10-12T04:26:59.897Z,15.70
2018-10-12T04:29:30.676Z,15.70
2018-10-12T04:31:58.410Z,15.70
2018-10-12T04:34:26.064Z,15.70
2018-10-12T04:36:53.745Z,15.60
2018-10-12T04:39:27.166Z,15.40
2018-10-12T04:41:54.876Z,15.40
2018-10-12T04:44:22.559Z,15.40
2018-10-12T04:46:54.236Z,15.40
2018-10-12T04:49:21.984Z,15.30
2018-10-12T04:51:55.560Z,15.20
2018-10-12T04:54:23.409Z,15.20
2018-10-12T04:56:51.654Z,15.30
2018-10-12T04:59:19.797Z,15.50
2018-10-12T05:01:47.541Z,15.50
2018-10-12T05:04:15.233Z,15.50
2018-10-12T05:06:42.946Z,15.60
2018-10-12T05:09:11.471Z,15.60
2018-10-12T05:11:39.438Z,15.60
2018-10-12T05:14:07.286Z,15.60
2018-10-12T05:16:35.166Z,15.50
2018-10-12T05:19:02.870Z,15.40
2018-10-12T05:21:30.592Z,15.40
2018-10-12T05:23:58.295Z,15.40
2018-10-12T05:26:25.962Z,15.30
2018-10-12T05:28:53.733Z,15.40
2018-10-12T05:31:21.472Z,15.50
2018-10-12T05:33:49.187Z,15.50
2018-10-12T05:36:16.977Z,15.40
2018-10-12T05:38:44.647Z,15.50
2018-10-12T05:41:12.349Z,15.60
2018-10-12T05:43:40.044Z,15.70
2018-10-12T05:46:07.732Z,15.70
2018-10-12T05:48:41.110Z,15.70
2018-10-12T05:51:09.796Z,15.80
2018-10-12T05:53:37.890Z,15.90
2018-10-12T05:56:06.240Z,16.00
2018-10-12T05:58:33.981Z,16.00
2018-10-12T06:01:01.750Z,16.10
2018-10-12T06:03:29.955Z,16.00
2018-10-12T06:05:57.675Z,16.10
2018-10-12T06:08:25.389Z,16.30
2018-10-12T06:10:53.077Z,16.40
2018-10-12T06:13:20.763Z,16.50
2018-10-12T06:15:48.486Z,16.50
2018-10-12T06:18:16.173Z,16.40
2018-10-12T06:20:43.913Z,16.30
2018-10-12T06:23:11.624Z,16.40
2018-10-12T06:25:39.305Z,16.30
2018-10-12T06:28:06.977Z,16.40
2018-10-12T06:30:34.660Z,16.60
2018-10-12T06:33:02.404Z,16.70
2018-10-12T06:35:30.105Z,16.90
2018-10-12T06:37:58.230Z,17.00
2018-10-12T06:40:25.913Z,17.10
2018-10-12T06:42:53.613Z,17.20
2018-10-12T06:45:21.341Z,17.30
2018-10-12T06:47:49.006Z,17.30
2018-10-12T06:50:16.694Z,17.40
2018-10-12T06:52:44.437Z,17.50
2018-10-12T06:55:12.127Z,17.60
2018-10-12T06:57:39.834Z,17.60
2018-10-12T07:00:07.631Z,17.70
2018-10-12T07:02:35.633Z,17.80
2018-10-12T07:05:03.453Z,18.00
2018-10-12T07:07:31.201Z,18.00
2018-10-12T07:09:58.904Z,18.10
2018-10-12T07:12:26.599Z,18.20
2018-10-12T07:14:54.267Z,18.30
2018-10-12T07:17:22.740Z,18.40
2018-10-12T07:19:50.407Z,18.50
2018-10-12T07:22:18.107Z,18.50
2018-10-12T07:24:45.784Z,18.50
2018-10-12T07:27:13.434Z,18.50
2018-10-12T07:29:41.120Z,18.60
2018-10-12T07:32:08.826Z,18.50
2018-10-12T07:34:36.526Z,18.60
2018-10-12T07:37:04.275Z,18.60
2018-10-12T07:39:31.905Z,18.70
2018-10-12T07:41:59.595Z,18.90
2018-10-12T07:44:27.281Z,19.20
2018-10-12T07:46:54.962Z,19.30
2018-10-12T07:49:22.959Z,19.30
2018-10-12T07:51:50.373Z,19.40
2018-10-12T07:54:18.090Z,19.40
2018-10-12T07:56:45.742Z,19.50
2018-10-12T07:59:13.441Z,19.50
2018-10-12T08:01:41.149Z,19.50
2018-10-12T08:04:08.830Z,19.50
2018-10-12T08:06:36.530Z,19.40
2018-10-12T08:09:05.969Z,19.40
2018-10-12T08:11:33.651Z,19.50
2018-10-12T08:14:01.352Z,19.50
2018-10-12T08:16:29.052Z,19.60
2018-10-12T08:18:56.759Z,19.60
2018-10-12T08:21:24.466Z,19.60
2018-10-12T08:23:52.163Z,19.80
2018-10-12T08:26:19.849Z,20.00
2018-10-12T08:28:47.561Z,20.10
2018-10-12T08:31:15.248Z,20.10
2018-10-12T08:33:42.997Z,20.10
2018-10-12T08:36:10.728Z,20.20
2018-10-12T08:38:38.400Z,20.30
2018-10-12T08:41:06.169Z,20.30
2018-10-12T08:43:33.826Z,20.30
2018-10-12T08:46:01.493Z,20.20
2018-10-12T08:48:29.249Z,20.30
2018-10-12T08:50:56.959Z,20.30
2018-10-12T08:53:24.681Z,20.30
2018-10-12T08:55:52.345Z,20.30
2018-10-12T08:58:20.107Z,20.30
2018-10-12T09:00:47.784Z,20.30
2018-10-12T09:03:15.506Z,20.40
2018-10-12T09:05:43.177Z,20.50
2018-10-12T09:08:10.848Z,20.70
2018-10-12T09:10:38.552Z,20.70
2018-10-12T09:13:06.234Z,20.70
2018-10-12T09:15:34.129Z,20.70
2018-10-12T09:18:01.827Z,20.70
2018-10-12T09:20:29.631Z,20.80
2018-10-12T09:22:57.250Z,21.20
2018-10-12T09:25:24.903Z,21.60
2018-10-12T09:27:52.633Z,22.00
2018-10-12T09:30:20.382Z,22.20
2018-10-12T09:32:48.005Z,22.40
2018-10-12T09:35:15.683Z,22.60
2018-10-12T09:37:43.401Z,22.80
2018-10-12T09:40:12.153Z,23.00
2018-10-12T09:42:39.815Z,23.10
2018-10-12T09:45:07.490Z,23.40
2018-10-12T09:47:35.194Z,23.50
2018-10-12T09:50:02.885Z,23.50
2018-10-12T09:52:30.565Z,23.40
2018-10-12T09:54:58.253Z,23.40
2018-10-12T09:57:26.920Z,23.50
2018-10-12T09:59:55.019Z,23.70
2018-10-12T10:02:27.913Z,23.70
2018-10-12T10:04:59.884Z,23.70
2018-10-12T10:07:27.599Z,23.90
2018-10-12T10:09:56.572Z,23.80
2018-10-12T10:12:24.253Z,24.00
2018-10-12T10:14:51.950Z,24.00
2018-10-12T10:17:19.723Z,24.10
2018-10-12T10:19:47.453Z,24.10
2018-10-12T10:22:15.162Z,24.10
2018-10-12T10:24:42.890Z,24.40
2018-10-12T10:27:10.880Z,24.40
2018-10-12T10:29:38.572Z,24.60
2018-10-12T10:32:06.290Z,24.50
2018-10-12T10:34:33.986Z,24.50
2018-10-12T10:37:01.669Z,24.60
2018-10-12T10:39:29.354Z,24.80
2018-10-12T10:41:57.816Z,24.70
2018-10-12T10:44:25.490Z,24.90
2018-10-12T10:46:53.215Z,24.90
2018-10-12T10:49:20.918Z,24.90
2018-10-12T10:51:48.697Z,25.00
2018-10-12T10:54:16.546Z,25.10
2018-10-12T10:56:44.276Z,25.30
2018-10-12T10:59:11.974Z,25.50
2018-10-12T11:01:39.880Z,25.60
2018-10-12T11:04:07.603Z,25.80
2018-10-12T11:06:35.381Z,26.00
2018-10-12T11:09:03.209Z,26.10
2018-10-12T11:11:30.873Z,26.00
2018-10-12T11:13:58.541Z,26.00
2018-10-12T11:16:31.400Z,25.90
2018-10-12T11:18:59.061Z,25.50
2018-10-12T11:21:26.741Z,25.20
2018-10-12T11:23:54.402Z,25.00
2018-10-12T11:26:22.166Z,25.30
2018-10-12T11:28:49.845Z,25.40
2018-10-12T11:31:17.952Z,25.60
2018-10-12T11:33:45.650Z,25.70
2018-10-12T11:36:13.315Z,25.80
2018-10-12T11:38:41.021Z,25.80
2018-10-12T11:41:08.751Z,25.70
2018-10-12T11:43:37.701Z,26.30
2018-10-12T11:46:05.648Z,26.20
2018-10-12T11:48:33.354Z,26.00
2018-10-12T11:51:01.423Z,25.70
2018-10-12T11:53:29.101Z,25.70
2018-10-12T11:55:56.789Z,25.80
2018-10-12T11:58:24.993Z,25.90
2018-10-12T12:00:52.764Z,26.00
2018-10-12T12:03:20.367Z,26.20
2018-10-12T12:05:48.081Z,26.50
2018-10-12T12:08:15.796Z,26.40
2018-10-12T12:10:43.513Z,26.60
2018-10-12T12:13:11.301Z,26.70
2018-10-12T12:15:39.034Z,26.60
2018-10-12T12:18:06.788Z,26.40
2018-10-12T12:20:34.556Z,26.70
2018-10-12T12:23:02.278Z,26.80
2018-10-12T12:25:29.995Z,27.20
2018-10-12T12:27:57.705Z,27.10
2018-10-12T12:30:25.381Z,26.70
2018-10-12T12:32:53.075Z,27.20
2018-10-12T12:35:20.944Z,27.30
2018-10-12T12:37:49.702Z,27.50
2018-10-12T12:40:17.529Z,27.60
2018-10-12T12:42:45.198Z,27.80
2018-10-12T12:45:12.851Z,27.90
2018-10-12T12:47:40.654Z,27.80
2018-10-12T12:50:08.321Z,27.70
2018-10-12T12:52:36.319Z,27.40
2018-10-12T12:55:04.182Z,27.20
2018-10-12T12:57:31.894Z,27.40
2018-10-12T12:59:59.597Z,27.50
2018-10-12T13:02:27.399Z,27.40
2018-10-12T13:04:55.082Z,27.30
2018-10-12T13:07:22.806Z,27.60
2018-10-12T13:09:50.500Z,27.80
2018-10-12T13:12:18.204Z,28.00
2018-10-12T13:14:46.752Z,28.10
2018-10-12T13:17:15.373Z,27.50
2018-10-12T13:19:43.614Z,27.50
2018-10-12T13:22:11.450Z,27.60
2018-10-12T13:24:40.435Z,27.20
2018-10-12T13:27:08.381Z,27.20
2018-10-12T13:29:36.746Z,27.30
2018-10-12T13:32:07.274Z,27.40
2018-10-12T13:34:35.093Z,27.50
2018-10-12T13:37:02.841Z,27.60
2018-10-12T13:39:30.847Z,27.40
2018-10-12T13:41:58.960Z,27.40
2018-10-12T13:44:26.863Z,27.40
2018-10-12T13:46:54.595Z,27.60
2018-10-12T13:49:22.272Z,27.80
2018-10-12T13:51:49.944Z,27.80
2018-10-12T13:54:17.893Z,27.70
2018-10-12T13:56:46.562Z,27.30
2018-10-12T13:59:14.786Z,27.30
2018-10-12T14:01:42.932Z,27.90
2018-10-12T14:04:10.972Z,27.40
2018-10-12T14:06:38.961Z,27.40
2018-10-12T14:09:07.134Z,28.00
2018-10-12T14:11:34.979Z,28.10
2018-10-12T14:14:02.696Z,28.00
2018-10-12T14:16:30.767Z,28.10
2018-10-12T14:18:58.711Z,27.90
2018-10-12T14:21:27.011Z,27.70
2018-10-12T14:23:55.057Z,27.80
2018-10-12T14:26:23.103Z,27.90
2018-10-12T14:28:50.862Z,27.60
2018-10-12T14:31:19.007Z,27.30
2018-10-12T14:33:46.864Z,26.90
2018-10-12T14:36:14.914Z,26.80
2018-10-12T14:38:42.680Z,26.90
2018-10-12T14:41:10.639Z,27.10
2018-10-12T14:43:38.628Z,27.20
2018-10-12T14:46:09.844Z,27.20
2018-10-12T14:48:37.747Z,27.30
2018-10-12T14:51:05.908Z,27.60
2018-10-12T14:53:34.303Z,27.40
2018-10-12T14:56:02.339Z,27.50
2018-10-12T14:58:30.575Z,27.70
2018-10-12T15:00:58.953Z,27.60
2018-10-12T15:03:26.973Z,27.90
2018-10-12T15:05:54.814Z,27.70
2018-10-12T15:08:23.134Z,27.50
2018-10-12T15:10:51.247Z,27.60
2018-10-12T15:13:19.078Z,27.60
2018-10-12T15:15:46.847Z,27.20
2018-10-12T15:18:14.637Z,26.70
2018-10-12T15:20:43.625Z,26.00
2018-10-12T15:23:12.387Z,25.80
2018-10-12T15:25:41.719Z,25.40
2018-10-12T15:28:16.267Z,25.20
2018-10-12T15:30:44.060Z,25.00
2018-10-12T15:33:11.746Z,24.90
2018-10-12T15:35:39.535Z,24.80
2018-10-12T15:38:09.259Z,24.80
2018-10-12T15:40:37.055Z,24.60
2018-10-12T15:43:04.937Z,24.50
2018-10-12T15:45:32.580Z,24.40
2018-10-12T15:48:00.314Z,24.40
2018-10-12T15:50:28.012Z,24.20
2018-10-12T15:52:55.764Z,24.10
2018-10-12T15:55:23.431Z,24.10
2018-10-12T15:57:51.136Z,24.10
2018-10-12T16:00:18.842Z,24.00
2018-10-12T16:02:46.569Z,23.90
2018-10-12T16:05:14.249Z,23.80
2018-10-12T16:07:42.034Z,23.70
2018-10-12T16:10:09.830Z,23.70
2018-10-12T16:12:37.579Z,23.60
2018-10-12T16:15:05.426Z,23.50
2018-10-12T16:17:33.156Z,23.40
2018-10-12T16:20:01.417Z,23.40
2018-10-12T16:22:29.178Z,23.30
2018-10-12T16:25:02.513Z,23.30
2018-10-12T16:27:30.765Z,23.20
2018-10-12T16:29:58.491Z,23.10
2018-10-12T16:32:26.186Z,23.00
2018-10-12T16:34:53.864Z,23.00
2018-10-12T16:37:21.700Z,22.90
2018-10-12T16:39:49.515Z,22.80
2018-10-12T16:42:17.162Z,22.70
2018-10-12T16:44:44.861Z,22.50
2018-10-12T16:47:12.573Z,22.50
2018-10-12T16:49:40.384Z,22.40
2018-10-12T16:52:08.125Z,22.30
2018-10-12T16:54:35.806Z,22.20
2018-10-12T16:57:03.481Z,22.10
2018-10-12T16:59:31.179Z,22.00
2018-10-12T17:01:58.878Z,22.00
2018-10-12T17:04:26.855Z,22.00
2018-10-12T17:06:54.533Z,22.00
2018-10-12T17:09:22.228Z,22.00
2018-10-12T17:11:49.890Z,22.00
2018-10-12T17:14:17.555Z,22.10
2018-10-12T17:16:45.319Z,22.00
2018-10-12T17:19:12.973Z,21.80
2018-10-12T17:21:40.629Z,21.70
2018-10-12T17:24:08.326Z,21.70
2018-10-12T17:26:35.975Z,21.60
2018-10-12T17:29:03.669Z,21.50
2018-10-12T17:31:31.361Z,21.40
2018-10-12T17:33:59.053Z,21.50
2018-10-12T17:36:26.721Z,21.40
2018-10-12T17:38:54.395Z,21.30
2018-10-12T17:41:22.118Z,21.30
2018-10-12T17:43:50.544Z,21.30
2018-10-12T17:46:18.286Z,21.30
2018-10-12T17:48:45.951Z,21.30
2018-10-12T17:51:14.043Z,21.20
2018-10-12T17:53:41.789Z,21.20
2018-10-12T17:56:09.677Z,21.20
2018-10-12T17:58:37.358Z,21.10
2018-10-12T18:01:05.908Z,21.10
2018-10-12T18:03:33.592Z,21.10
2018-10-12T18:06:02.344Z,21.10
2018-10-12T18:08:30.194Z,21.10
2018-10-12T18:10:57.879Z,21.00
2018-10-12T18:13:25.554Z,21.00
2018-10-12T18:15:53.237Z,21.10
2018-10-12T18:18:20.947Z,21.10
2018-10-12T18:20:48.620Z,21.10
2018-10-12T18:23:16.496Z,21.10
2018-10-12T18:25:44.235Z,21.20
2018-10-12T18:28:11.868Z,21.20
2018-10-12T18:30:39.580Z,21.20
2018-10-12T18:33:07.237Z,21.20
2018-10-12T18:35:34.928Z,21.20
2018-10-12T18:38:02.634Z,21.10
2018-10-12T18:40:30.329Z,21.10
2018-10-12T18:42:58.168Z,21.10
2018-10-12T18:45:25.879Z,21.10
2018-10-12T18:47:54.208Z,21.00
2018-10-12T18:50:21.872Z,21.10
2018-10-12T18:52:49.850Z,21.00
2018-10-12T18:55:18.181Z,20.90
2018-10-12T18:57:45.878Z,21.00
2018-10-12T19:00:13.713Z,21.00
2018-10-12T19:02:41.342Z,20.90
2018-10-12T19:05:09.125Z,20.80
2018-10-12T19:07:36.742Z,20.80
2018-10-12T19:10:04.585Z,20.90
2018-10-12T19:12:32.244Z,20.90
2018-10-12T19:14:59.919Z,20.80
2018-10-12T19:17:27.666Z,20.80
2018-10-12T19:19:55.347Z,20.70
2018-10-12T19:22:23.036Z,20.80
2018-10-12T19:24:50.711Z,20.90
2018-10-12T19:27:18.387Z,20.90
2018-10-12T19:29:46.055Z,20.90
2018-10-12T19:32:13.773Z,20.80
2018-10-12T19:34:41.497Z,20.70
2018-10-12T19:37:09.386Z,20.60
2018-10-12T19:39:37.196Z,20.60
2018-10-12T19:42:04.953Z,20.60
2018-10-12T19:44:32.681Z,20.60
2018-10-12T19:47:00.357Z,20.70
2018-10-12T19:49:28.045Z,20.70
2018-10-12T19:51:55.790Z,20.70
2018-10-12T19:54:23.588Z,20.70
2018-10-12T19:56:51.405Z,20.60
2018-10-12T19:59:19.264Z,20.50
2018-10-12T20:01:47.040Z,20.50
2018-10-12T20:04:14.802Z,20.40
2018-10-12T20:06:42.580Z,20.30
2018-10-12T20:09:11.623Z,20.30
2018-10-12T20:11:39.610Z,20.30
2018-10-12T20:14:07.563Z,20.30
2018-10-12T20:16:35.417Z,20.20
2018-10-12T20:19:03.128Z,20.00
2018-10-12T20:21:30.821Z,19.90
2018-10-12T20:23:58.542Z,19.80
2018-10-12T20:26:26.311Z,19.70
2018-10-12T20:28:53.986Z,19.70
2018-10-12T20:31:23.258Z,19.70
2018-10-12T20:33:52.805Z,19.70
2018-10-12T20:36:20.831Z,19.60
2018-10-12T20:38:49.688Z,19.50
2018-10-12T20:41:17.445Z,19.50
2018-10-12T20:43:45.128Z,19.50
2018-10-12T20:46:12.805Z,19.70
2018-10-12T20:48:40.499Z,19.60
2018-10-12T20:51:08.222Z,19.60
2018-10-12T20:53:35.900Z,19.70
2018-10-12T20:56:03.590Z,19.70
2018-10-12T20:58:31.315Z,19.60
2018-10-12T21:00:59.419Z,19.60
2018-10-12T21:03:27.343Z,19.50
2018-10-12T21:05:55.038Z,19.40
2018-10-12T21:08:22.774Z,19.30
2018-10-12T21:10:50.462Z,19.30
2018-10-12T21:13:18.158Z,19.20
2018-10-12T21:15:45.855Z,19.30
2018-10-12T21:18:13.540Z,19.20
2018-10-12T21:20:41.238Z,19.20
2018-10-12T21:23:08.913Z,19.00
2018-10-12T21:25:36.606Z,18.90
2018-10-12T21:28:04.287Z,18.80
2018-10-12T21:30:31.971Z,18.60
2018-10-12T21:33:00.908Z,18.70
2018-10-12T21:35:29.404Z,18.60
2018-10-12T21:37:58.062Z,18.70
2018-10-12T21:40:25.864Z,18.60
2018-10-12T21:42:53.504Z,18.50
2018-10-12T21:45:21.377Z,18.30
2018-10-12T21:47:49.058Z,18.20
2018-10-12T21:50:16.772Z,18.10
2018-10-12T21:52:44.460Z,18.10
2018-10-12T21:55:12.214Z,18.20
2018-10-12T21:57:39.879Z,18.20
2018-10-12T22:00:07.631Z,18.00
2018-10-12T22:02:35.282Z,17.80
2018-10-12T22:05:03.077Z,17.70
2018-10-12T22:07:30.773Z,17.70
2018-10-12T22:09:58.605Z,17.60
2018-10-12T22:12:26.495Z,17.50
2018-10-12T22:14:54.537Z,17.60
2018-10-12T22:17:22.342Z,17.80
2018-10-12T22:19:50.081Z,17.90
2018-10-12T22:22:18.769Z,18.10
2018-10-12T22:24:46.501Z,18.10
2018-10-12T22:27:14.280Z,18.30
2018-10-12T22:29:41.989Z,18.40
2018-10-12T22:32:09.638Z,18.40
2018-10-12T22:34:37.362Z,18.30
2018-10-12T22:37:07.567Z,18.30
2018-10-12T22:39:35.305Z,18.40
2018-10-12T22:42:03.011Z,18.40
2018-10-12T22:44:30.693Z,18.40
2018-10-12T22:46:58.403Z,18.20
2018-10-12T22:49:26.125Z,18.10
2018-10-12T22:51:53.860Z,18.10
2018-10-12T22:54:21.545Z,18.20
2018-10-12T22:56:49.222Z,18.00
2018-10-12T22:59:16.909Z,17.90
2018-10-12T23:01:44.591Z,17.80
2018-10-12T23:04:12.297Z,17.80
2018-10-12T23:06:39.977Z,17.80
2018-10-12T23:09:08.602Z,17.90
2018-10-12T23:11:36.321Z,18.10
2018-10-12T23:14:04.266Z,18.20
2018-10-12T23:16:31.951Z,18.10
2018-10-12T23:19:00.209Z,18.00
2018-10-12T23:21:28.400Z,18.00
2018-10-12T23:23:56.066Z,17.80
2018-10-12T23:26:23.716Z,17.80
2018-10-12T23:28:51.386Z,17.90
2018-10-12T23:31:19.064Z,17.90
2018-10-12T23:33:52.345Z,17.80
2018-10-12T23:36:20.017Z,18.00
2018-10-12T23:38:47.707Z,18.20
2018-10-12T23:41:15.361Z,18.10
2018-10-12T23:43:43.068Z,18.10
2018-10-12T23:46:10.776Z,18.00
2018-10-12T23:48:38.441Z,17.80
2018-10-12T23:51:06.179Z,17.60
2018-10-12T23:53:33.857Z,17.70
2018-10-12T23:56:01.668Z,17.60
2018-10-12T23:58:29.312Z,17.50
